createdAt,value
2023-03-18T00:00:32.901Z,8.99
2023-03-18T00:01:32.472Z,8.97
2023-03-18T00:02:32.504Z,8.97
2023-03-18T00:03:32.516Z,8.97
2023-03-18T00:04:32.435Z,8.97
2023-03-18T00:05:32.424Z,8.99
2023-03-18T00:06:32.428Z,8.99
2023-03-18T00:07:32.394Z,8.99
2023-03-18T00:08:32.398Z,8.99
2023-03-18T00:09:32.386Z,9.01
2023-03-18T00:10:32.633Z,9.01
2023-03-18T00:11:32.343Z,9.01
2023-03-18T00:12:32.350Z,9.02
2023-03-18T00:13:32.334Z,9.02
2023-03-18T00:14:32.344Z,9.02
2023-03-18T00:15:32.280Z,9.04
2023-03-18T00:16:32.304Z,9.04
2023-03-18T00:17:32.332Z,9.02
2023-03-18T00:18:32.257Z,9.04
2023-03-18T00:19:32.232Z,9.02
2023-03-18T00:20:32.533Z,9.01
2023-03-18T00:21:32.212Z,9.01
2023-03-18T00:22:32.216Z,9.02
2023-03-18T00:23:32.219Z,9.02
2023-03-18T00:24:32.205Z,9.02
2023-03-18T00:25:32.165Z,9.02
2023-03-18T00:26:32.143Z,9.04
2023-03-18T00:27:32.144Z,9.04
2023-03-18T00:28:32.139Z,9.04
2023-03-18T00:29:32.124Z,9.02
2023-03-18T00:30:32.285Z,9.02
2023-03-18T00:31:32.181Z,9.04
2023-03-18T00:32:32.128Z,9.02
2023-03-18T00:33:32.087Z,9.01
2023-03-18T00:34:32.053Z,9.01
2023-03-18T00:35:32.063Z,8.99
2023-03-18T00:36:32.051Z,8.97
2023-03-18T00:37:32.017Z,8.97
2023-03-18T00:38:31.995Z,8.96
2023-03-18T00:39:32.011Z,8.96
2023-03-18T00:40:32.214Z,8.96
2023-03-18T00:41:31.955Z,8.96
2023-03-18T00:42:31.945Z,8.94
2023-03-18T00:43:31.924Z,8.96
2023-03-18T00:44:31.949Z,8.94
2023-03-18T00:45:31.919Z,8.93
2023-03-18T00:46:31.969Z,8.94
2023-03-18T00:47:31.867Z,8.93
2023-03-18T00:48:31.874Z,8.91
2023-03-18T00:49:31.855Z,8.91
2023-03-18T00:50:32.113Z,8.90
2023-03-18T00:51:31.854Z,8.88
2023-03-18T00:52:32.430Z,8.88
2023-03-18T00:53:31.809Z,8.87
2023-03-18T00:54:31.798Z,8.87
2023-03-18T00:55:31.779Z,8.86
2023-03-18T00:56:31.764Z,8.86
2023-03-18T00:57:31.770Z,8.84
2023-03-18T00:58:31.750Z,8.83
2023-03-18T00:59:31.726Z,8.81
2023-03-18T01:00:32.112Z,8.78
2023-03-18T01:01:31.719Z,8.76
2023-03-18T01:02:31.717Z,8.76
2023-03-18T01:03:31.689Z,8.76
2023-03-18T01:04:31.709Z,8.75
2023-03-18T01:05:31.658Z,8.73
2023-03-18T01:06:31.635Z,8.72
2023-03-18T01:07:31.623Z,8.69
2023-03-18T01:08:31.626Z,8.69
2023-03-18T01:09:31.609Z,8.66
2023-03-18T01:10:31.808Z,8.66
2023-03-18T01:11:31.580Z,8.63
2023-03-18T01:12:31.556Z,8.62
2023-03-18T01:13:31.562Z,8.58
2023-03-18T01:14:31.551Z,8.57
2023-03-18T01:15:31.514Z,8.55
2023-03-18T01:16:31.572Z,8.55
2023-03-18T01:17:31.487Z,8.55
2023-03-18T01:18:31.486Z,8.57
2023-03-18T01:19:31.535Z,8.54
2023-03-18T01:20:31.709Z,8.54
2023-03-18T01:21:31.451Z,8.54
2023-03-18T01:22:31.441Z,8.54
2023-03-18T01:23:31.434Z,8.54
2023-03-18T01:24:31.411Z,8.53
2023-03-18T01:25:31.409Z,8.50
2023-03-18T01:26:38.466Z,8.48
2023-03-18T01:27:31.396Z,8.48
2023-03-18T01:28:31.395Z,8.47
2023-03-18T01:29:31.367Z,8.47
2023-03-18T01:30:31.604Z,8.47
2023-03-18T01:31:31.368Z,8.47
2023-03-18T01:32:31.339Z,8.47
2023-03-18T01:33:31.288Z,8.48
2023-03-18T01:34:31.281Z,8.47
2023-03-18T01:35:31.305Z,8.47
2023-03-18T01:36:31.276Z,8.44
2023-03-18T01:37:31.248Z,8.44
2023-03-18T01:38:31.225Z,8.44
2023-03-18T01:39:31.238Z,8.44
2023-03-18T01:40:31.496Z,8.45
2023-03-18T01:41:31.186Z,8.44
2023-03-18T01:42:31.197Z,8.45
2023-03-18T01:43:31.187Z,8.45
2023-03-18T01:44:31.147Z,8.45
2023-03-18T01:45:31.171Z,8.47
2023-03-18T01:46:31.123Z,8.45
2023-03-18T01:47:31.829Z,8.47
2023-03-18T01:48:31.114Z,8.47
2023-03-18T01:49:31.073Z,8.45
2023-03-18T01:50:31.375Z,8.45
2023-03-18T01:51:31.195Z,8.45
2023-03-18T01:52:31.050Z,8.47
2023-03-18T01:53:31.022Z,8.48
2023-03-18T01:54:31.030Z,8.48
2023-03-18T01:55:31.001Z,8.48
2023-03-18T01:56:30.990Z,8.47
2023-03-18T01:57:31.001Z,8.48
2023-03-18T01:58:30.984Z,8.50
2023-03-18T01:59:30.941Z,8.48
2023-03-18T02:00:31.108Z,8.47
2023-03-18T02:01:31.024Z,8.50
2023-03-18T02:02:30.936Z,8.48
2023-03-18T02:03:30.914Z,8.48
2023-03-18T02:04:30.890Z,8.51
2023-03-18T02:05:30.872Z,8.50
2023-03-18T02:06:30.899Z,8.51
2023-03-18T02:07:30.857Z,8.53
2023-03-18T02:08:30.833Z,8.53
2023-03-18T02:09:30.840Z,8.53
2023-03-18T02:10:31.157Z,8.54
2023-03-18T02:11:30.815Z,8.53
2023-03-18T02:12:30.794Z,8.51
2023-03-18T02:13:30.774Z,8.51
2023-03-18T02:14:30.770Z,8.53
2023-03-18T02:15:30.745Z,8.53
2023-03-18T02:16:30.764Z,8.53
2023-03-18T02:17:30.724Z,8.53
2023-03-18T02:18:30.720Z,8.54
2023-03-18T02:19:30.719Z,8.54
2023-03-18T02:20:31.020Z,8.53
2023-03-18T02:21:30.752Z,8.53
2023-03-18T02:22:30.653Z,8.51
2023-03-18T02:23:30.674Z,8.53
2023-03-18T02:24:30.638Z,8.53
2023-03-18T02:25:30.659Z,8.53
2023-03-18T02:26:30.604Z,8.54
2023-03-18T02:27:30.595Z,8.54
2023-03-18T02:28:30.588Z,8.53
2023-03-18T02:29:30.592Z,8.53
2023-03-18T02:30:30.880Z,8.54
2023-03-18T02:31:30.553Z,8.54
2023-03-18T02:32:30.578Z,8.55
2023-03-18T02:33:30.525Z,8.54
2023-03-18T02:34:30.503Z,8.54
2023-03-18T02:35:30.503Z,8.53
2023-03-18T02:36:30.485Z,8.54
2023-03-18T02:37:30.479Z,8.54
2023-03-18T02:38:30.458Z,8.55
2023-03-18T02:39:30.442Z,8.55
2023-03-18T02:40:30.761Z,8.55
2023-03-18T02:41:30.438Z,8.55
2023-03-18T02:42:30.410Z,8.55
2023-03-18T02:43:30.417Z,8.57
2023-03-18T02:44:30.367Z,8.55
2023-03-18T02:45:30.399Z,8.57
2023-03-18T02:46:30.412Z,8.55
2023-03-18T02:47:30.344Z,8.55
2023-03-18T02:48:30.317Z,8.55
2023-03-18T02:49:30.327Z,8.51
2023-03-18T02:50:30.551Z,8.53
2023-03-18T02:51:30.325Z,8.53
2023-03-18T02:52:30.267Z,8.51
2023-03-18T02:53:30.276Z,8.53
2023-03-18T02:54:30.263Z,8.51
2023-03-18T02:55:30.237Z,8.51
2023-03-18T02:56:30.223Z,8.51
2023-03-18T02:57:30.218Z,8.51
2023-03-18T02:58:30.202Z,8.53
2023-03-18T02:59:30.231Z,8.51
2023-03-18T03:00:30.419Z,8.50
2023-03-18T03:01:30.217Z,8.51
2023-03-18T03:02:30.235Z,8.51
2023-03-18T03:03:30.177Z,8.50
2023-03-18T03:04:30.118Z,8.48
2023-03-18T03:05:30.141Z,8.50
2023-03-18T03:06:30.100Z,8.48
2023-03-18T03:07:30.091Z,8.48
2023-03-18T03:08:30.068Z,8.47
2023-03-18T03:09:30.059Z,8.45
2023-03-18T03:10:30.326Z,8.47
2023-03-18T03:11:30.053Z,8.45
2023-03-18T03:12:30.034Z,8.47
2023-03-18T03:13:30.012Z,8.45
2023-03-18T03:14:29.995Z,8.45
2023-03-18T03:15:30.053Z,8.45
2023-03-18T03:16:29.983Z,8.45
2023-03-18T03:17:29.975Z,8.47
2023-03-18T03:18:29.965Z,8.45
2023-03-18T03:19:29.938Z,8.44
2023-03-18T03:20:30.132Z,8.44
2023-03-18T03:21:29.911Z,8.42
2023-03-18T03:22:29.892Z,8.42
2023-03-18T03:23:29.923Z,8.42
2023-03-18T03:24:29.869Z,8.42
2023-03-18T03:25:29.860Z,8.42
2023-03-18T03:26:29.854Z,8.40
2023-03-18T03:27:29.846Z,8.40
2023-03-18T03:28:29.828Z,8.42
2023-03-18T03:29:29.825Z,8.40
2023-03-18T03:30:30.000Z,8.42
2023-03-18T03:31:29.878Z,8.40
2023-03-18T03:32:29.774Z,8.42
2023-03-18T03:33:29.765Z,8.44
2023-03-18T03:34:29.773Z,8.42
2023-03-18T03:35:29.755Z,8.42
2023-03-18T03:36:29.724Z,8.44
2023-03-18T03:37:29.700Z,8.44
2023-03-18T03:38:29.710Z,8.42
2023-03-18T03:39:29.685Z,8.44
2023-03-18T03:40:29.994Z,8.44
2023-03-18T03:41:29.654Z,8.42
2023-03-18T03:42:29.658Z,8.44
2023-03-18T03:43:29.622Z,8.44
2023-03-18T03:44:29.624Z,8.45
2023-03-18T03:45:29.617Z,8.44
2023-03-18T03:46:29.643Z,8.44
2023-03-18T03:47:29.581Z,8.42
2023-03-18T03:48:29.554Z,8.44
2023-03-18T03:49:29.567Z,8.42
2023-03-18T03:50:29.597Z,8.44
2023-03-18T03:51:29.545Z,8.44
2023-03-18T03:52:29.526Z,8.45
2023-03-18T03:53:29.507Z,8.44
2023-03-18T03:54:29.502Z,8.44
2023-03-18T03:55:29.481Z,8.47
2023-03-18T03:56:29.466Z,8.44
2023-03-18T03:57:29.474Z,8.42
2023-03-18T03:58:29.470Z,8.44
2023-03-18T03:59:29.421Z,8.44
2023-03-18T04:00:29.613Z,8.44
2023-03-18T04:01:29.454Z,8.40
2023-03-18T04:02:29.412Z,8.40
2023-03-18T04:03:29.369Z,8.39
2023-03-18T04:04:29.393Z,8.39
2023-03-18T04:05:29.348Z,8.37
2023-03-18T04:06:29.336Z,8.37
2023-03-18T04:07:29.362Z,8.39
2023-03-18T04:08:29.305Z,8.35
2023-03-18T04:09:29.305Z,8.33
2023-03-18T04:10:29.331Z,8.33
2023-03-18T04:11:29.271Z,8.33
2023-03-18T04:12:29.241Z,8.33
2023-03-18T04:13:29.261Z,8.30
2023-03-18T04:14:29.244Z,8.30
2023-03-18T04:15:29.210Z,8.29
2023-03-18T04:16:29.273Z,8.29
2023-03-18T04:17:29.220Z,8.28
2023-03-18T04:18:29.204Z,8.28
2023-03-18T04:19:29.210Z,8.28
2023-03-18T04:20:29.188Z,8.25
2023-03-18T04:21:29.153Z,8.26
2023-03-18T04:22:29.154Z,8.22
2023-03-18T04:23:29.112Z,8.22
2023-03-18T04:24:29.095Z,8.26
2023-03-18T04:25:29.108Z,8.26
2023-03-18T04:26:29.095Z,8.28
2023-03-18T04:27:29.079Z,8.25
2023-03-18T04:28:29.041Z,8.26
2023-03-18T04:29:29.046Z,8.22
2023-03-18T04:30:29.029Z,8.25
2023-03-18T04:31:29.019Z,8.22
2023-03-18T04:32:29.041Z,8.22
2023-03-18T04:33:29.005Z,8.21
2023-03-18T04:34:28.974Z,8.21
2023-03-18T04:35:28.980Z,8.21
2023-03-18T04:36:28.944Z,8.20
2023-03-18T04:37:28.947Z,8.18
2023-03-18T04:38:28.923Z,8.17
2023-03-18T04:39:28.901Z,8.18
2023-03-18T04:40:28.983Z,8.15
2023-03-18T04:41:28.922Z,8.14
2023-03-18T04:42:28.873Z,8.11
2023-03-18T04:43:28.865Z,8.12
2023-03-18T04:44:28.851Z,8.12
2023-03-18T04:45:28.848Z,8.11
2023-03-18T04:46:28.960Z,8.11
2023-03-18T04:47:28.814Z,8.11
2023-03-18T04:48:28.814Z,8.08
2023-03-18T04:49:28.875Z,8.08
2023-03-18T04:50:28.797Z,8.07
2023-03-18T04:51:28.771Z,8.08
2023-03-18T04:52:28.733Z,8.07
2023-03-18T04:53:28.730Z,8.08
2023-03-18T04:54:28.713Z,8.07
2023-03-18T04:55:28.717Z,8.07
2023-03-18T04:56:28.693Z,8.03
2023-03-18T04:57:28.695Z,8.00
2023-03-18T04:58:28.692Z,8.00
2023-03-18T04:59:28.676Z,7.99
2023-03-18T05:00:28.639Z,7.97
2023-03-18T05:01:28.632Z,7.97
2023-03-18T05:02:28.611Z,7.96
2023-03-18T05:03:28.678Z,7.97
2023-03-18T05:04:28.598Z,7.94
2023-03-18T05:05:28.584Z,7.94
2023-03-18T05:06:28.564Z,7.92
2023-03-18T05:07:28.566Z,7.93
2023-03-18T05:08:28.544Z,7.92
2023-03-18T05:09:28.534Z,7.92
2023-03-18T05:10:28.525Z,7.90
2023-03-18T05:11:28.559Z,7.92
2023-03-18T05:12:28.514Z,7.92
2023-03-18T05:13:28.497Z,7.90
2023-03-18T05:14:28.452Z,7.89
2023-03-18T05:15:28.454Z,7.89
2023-03-18T05:16:28.472Z,7.89
2023-03-18T05:17:28.425Z,7.85
2023-03-18T05:18:28.426Z,7.84
2023-03-18T05:19:28.414Z,7.82
2023-03-18T05:20:28.379Z,7.82
2023-03-18T05:21:30.427Z,7.84
2023-03-18T05:22:28.351Z,7.84
2023-03-18T05:23:28.362Z,7.82
2023-03-18T05:24:28.364Z,7.79
2023-03-18T05:25:28.325Z,7.79
2023-03-18T05:26:28.300Z,7.77
2023-03-18T05:27:28.385Z,7.75
2023-03-18T05:28:28.284Z,7.74
2023-03-18T05:29:28.270Z,7.72
2023-03-18T05:30:28.272Z,7.69
2023-03-18T05:31:28.295Z,7.71
2023-03-18T05:32:28.239Z,7.71
2023-03-18T05:33:28.210Z,7.69
2023-03-18T05:34:28.205Z,7.71
2023-03-18T05:35:28.188Z,7.69
2023-03-18T05:36:28.206Z,7.67
2023-03-18T05:37:28.162Z,7.66
2023-03-18T05:38:28.155Z,7.66
2023-03-18T05:39:28.134Z,7.63
2023-03-18T05:40:28.122Z,7.63
2023-03-18T05:41:28.097Z,7.62
2023-03-18T05:42:28.131Z,7.58
2023-03-18T05:43:28.100Z,7.59
2023-03-18T05:44:28.072Z,7.58
2023-03-18T05:45:28.082Z,7.59
2023-03-18T05:46:28.097Z,7.58
2023-03-18T05:47:28.033Z,7.56
2023-03-18T05:48:28.020Z,7.58
2023-03-18T05:49:28.024Z,7.58
2023-03-18T05:50:27.994Z,7.56
2023-03-18T05:51:27.982Z,7.55
2023-03-18T05:52:27.979Z,7.55
2023-03-18T05:53:27.949Z,7.56
2023-03-18T05:54:27.929Z,7.55
2023-03-18T05:55:27.922Z,7.58
2023-03-18T05:56:27.940Z,7.58
2023-03-18T05:57:27.902Z,7.59
2023-03-18T05:58:27.909Z,7.60
2023-03-18T05:59:27.898Z,7.60
2023-03-18T06:00:27.920Z,7.63
2023-03-18T06:01:27.895Z,7.60
2023-03-18T06:02:27.934Z,7.63
2023-03-18T06:03:27.961Z,7.62
2023-03-18T06:04:27.847Z,7.63
2023-03-18T06:05:27.819Z,7.66
2023-03-18T06:06:27.790Z,7.66
2023-03-18T06:07:27.794Z,7.67
2023-03-18T06:08:27.768Z,7.67
2023-03-18T06:09:27.766Z,7.69
2023-03-18T06:10:27.753Z,7.71
2023-03-18T06:11:27.725Z,7.71
2023-03-18T06:12:27.732Z,7.72
2023-03-18T06:13:27.717Z,7.71
2023-03-18T06:14:27.683Z,7.71
2023-03-18T06:15:27.703Z,7.72
2023-03-18T06:16:27.723Z,7.72
2023-03-18T06:17:27.667Z,7.72
2023-03-18T06:18:27.624Z,7.71
2023-03-18T06:19:27.635Z,7.72
2023-03-18T06:20:27.613Z,7.75
2023-03-18T06:21:27.595Z,7.77
2023-03-18T06:22:27.577Z,7.77
2023-03-18T06:23:27.589Z,7.77
2023-03-18T06:24:27.573Z,7.77
2023-03-18T06:25:27.602Z,7.77
2023-03-18T06:26:27.530Z,7.79
2023-03-18T06:27:27.544Z,7.79
2023-03-18T06:28:27.517Z,7.79
2023-03-18T06:29:27.483Z,7.79
2023-03-18T06:30:27.492Z,7.82
2023-03-18T06:31:27.529Z,7.82
2023-03-18T06:32:27.456Z,7.82
2023-03-18T06:33:27.436Z,7.84
2023-03-18T06:34:27.425Z,7.82
2023-03-18T06:35:27.428Z,7.82
2023-03-18T06:36:27.411Z,7.81
2023-03-18T06:37:27.383Z,7.81
2023-03-18T06:38:27.417Z,7.79
2023-03-18T06:39:27.355Z,7.81
2023-03-18T06:40:27.371Z,7.79
2023-03-18T06:41:27.365Z,7.78
2023-03-18T06:42:27.339Z,7.78
2023-03-18T06:43:27.309Z,7.79
2023-03-18T06:44:27.295Z,7.82
2023-03-18T06:45:27.366Z,7.85
2023-03-18T06:46:27.338Z,7.87
2023-03-18T06:47:27.267Z,7.89
2023-03-18T06:48:27.268Z,7.90
2023-03-18T06:49:27.235Z,7.93
2023-03-18T06:50:27.249Z,7.96
2023-03-18T06:51:27.233Z,7.99
2023-03-18T06:52:27.206Z,8.02
2023-03-18T06:53:27.189Z,8.03
2023-03-18T06:54:27.175Z,8.04
2023-03-18T06:55:27.160Z,8.11
2023-03-18T06:56:27.220Z,8.14
2023-03-18T06:57:27.215Z,8.14
2023-03-18T06:58:27.133Z,8.15
2023-03-18T06:59:27.110Z,8.18
2023-03-18T07:00:27.122Z,8.20
2023-03-18T07:01:27.146Z,8.22
2023-03-18T07:02:27.077Z,8.25
2023-03-18T07:03:27.071Z,8.29
2023-03-18T07:04:27.114Z,8.28
2023-03-18T07:05:27.026Z,8.29
2023-03-18T07:06:27.024Z,8.30
2023-03-18T07:07:27.015Z,8.30
2023-03-18T07:08:27.009Z,8.32
2023-03-18T07:09:27.020Z,8.33
2023-03-18T07:10:26.965Z,8.35
2023-03-18T07:11:26.963Z,8.36
2023-03-18T07:12:26.961Z,8.36
2023-03-18T07:13:26.949Z,8.39
2023-03-18T07:14:26.930Z,8.40
2023-03-18T07:15:26.913Z,8.42
2023-03-18T07:16:26.937Z,8.47
2023-03-18T07:17:26.902Z,8.50
2023-03-18T07:18:26.863Z,8.55
2023-03-18T07:19:26.869Z,8.55
2023-03-18T07:20:26.844Z,8.60
2023-03-18T07:21:26.831Z,8.66
2023-03-18T07:22:26.821Z,8.68
2023-03-18T07:23:26.810Z,8.71
2023-03-18T07:24:26.814Z,8.73
2023-03-18T07:25:26.777Z,8.78
2023-03-18T07:26:26.773Z,8.81
2023-03-18T07:27:33.810Z,8.83
2023-03-18T07:28:26.747Z,8.88
2023-03-18T07:29:26.726Z,8.94
2023-03-18T07:30:26.734Z,8.97
2023-03-18T07:31:26.714Z,9.01
2023-03-18T07:32:26.696Z,9.05
2023-03-18T07:33:26.673Z,9.09
2023-03-18T07:34:26.673Z,9.12
2023-03-18T07:35:26.658Z,9.13
2023-03-18T07:36:26.645Z,9.15
2023-03-18T07:37:26.621Z,9.16
2023-03-18T07:38:26.622Z,9.20
2023-03-18T07:39:26.595Z,9.24
2023-03-18T07:40:26.610Z,9.27
2023-03-18T07:41:26.596Z,9.30
2023-03-18T07:42:26.566Z,9.31
2023-03-18T07:43:26.573Z,9.31
2023-03-18T07:44:26.542Z,9.32
2023-03-18T07:45:26.545Z,9.31
2023-03-18T07:46:26.532Z,9.31
2023-03-18T07:47:26.535Z,9.34
2023-03-18T07:48:26.469Z,9.35
2023-03-18T07:49:26.495Z,9.38
2023-03-18T07:50:26.464Z,9.38
2023-03-18T07:51:26.457Z,9.38
2023-03-18T07:52:26.478Z,9.39
2023-03-18T07:53:26.417Z,9.42
2023-03-18T07:54:26.400Z,9.43
2023-03-18T07:55:26.397Z,9.42
2023-03-18T07:56:26.383Z,9.42
2023-03-18T07:57:26.362Z,9.45
2023-03-18T07:58:26.381Z,9.48
2023-03-18T07:59:26.397Z,9.49
2023-03-18T08:00:26.342Z,9.52
2023-03-18T08:01:26.328Z,9.53
2023-03-18T08:02:26.301Z,9.57
2023-03-18T08:03:26.281Z,9.58
2023-03-18T08:04:26.354Z,9.61
2023-03-18T08:05:26.275Z,9.63
2023-03-18T08:06:26.265Z,9.68
2023-03-18T08:07:26.419Z,9.73
2023-03-18T08:08:26.211Z,9.76
2023-03-18T08:09:26.214Z,9.79
2023-03-18T08:10:26.212Z,9.83
2023-03-18T08:11:26.185Z,9.88
2023-03-18T08:12:26.183Z,9.94
2023-03-18T08:13:26.141Z,9.99
2023-03-18T08:14:26.155Z,10.04
2023-03-18T08:15:26.141Z,10.09
2023-03-18T08:16:26.144Z,10.10
2023-03-18T08:17:26.130Z,10.19
2023-03-18T08:18:26.081Z,10.24
2023-03-18T08:19:26.076Z,10.28
2023-03-18T08:20:26.082Z,10.34
2023-03-18T08:21:26.067Z,10.37
2023-03-18T08:22:26.056Z,10.42
2023-03-18T08:23:26.029Z,10.46
2023-03-18T08:24:26.019Z,10.47
2023-03-18T08:25:25.999Z,10.47
2023-03-18T08:26:26.138Z,10.44
2023-03-18T08:27:25.988Z,10.51
2023-03-18T08:28:25.977Z,10.55
2023-03-18T08:29:25.956Z,10.62
2023-03-18T08:30:25.931Z,10.66
2023-03-18T08:31:25.971Z,10.68
2023-03-18T08:32:25.925Z,10.68
2023-03-18T08:33:25.926Z,10.71
2023-03-18T08:34:25.892Z,10.76
2023-03-18T08:35:25.912Z,10.84
2023-03-18T08:36:25.855Z,10.99
2023-03-18T08:37:25.833Z,11.10
2023-03-18T08:38:25.883Z,11.17
2023-03-18T08:39:25.828Z,11.24
2023-03-18T08:40:25.803Z,11.14
2023-03-18T08:41:25.807Z,11.10
2023-03-18T08:42:25.807Z,11.19
2023-03-18T08:43:25.792Z,11.20
2023-03-18T08:44:25.767Z,11.20
2023-03-18T08:45:25.744Z,11.32
2023-03-18T08:46:25.790Z,11.44
2023-03-18T08:47:25.710Z,11.49
2023-03-18T08:48:25.730Z,11.57
2023-03-18T08:49:25.683Z,11.62
2023-03-18T08:50:25.676Z,11.68
2023-03-18T08:51:25.677Z,11.74
2023-03-18T08:52:25.690Z,11.77
2023-03-18T08:53:25.661Z,11.72
2023-03-18T08:54:25.638Z,11.72
2023-03-18T08:55:25.629Z,11.75
2023-03-18T08:56:25.618Z,11.83
2023-03-18T08:57:25.600Z,11.96
2023-03-18T08:58:25.591Z,12.01
2023-03-18T08:59:25.556Z,11.87
2023-03-18T09:00:25.571Z,11.90
2023-03-18T09:01:25.600Z,11.90
2023-03-18T09:02:25.537Z,11.99
2023-03-18T09:03:25.595Z,12.08
2023-03-18T09:04:25.496Z,12.16
2023-03-18T09:05:25.488Z,12.24
2023-03-18T09:06:25.470Z,12.29
2023-03-18T09:07:25.471Z,12.31
2023-03-18T09:08:25.466Z,12.31
2023-03-18T09:09:40.940Z,12.34
2023-03-18T09:10:26.506Z,12.49
2023-03-18T09:11:25.522Z,12.60
2023-03-18T09:12:25.402Z,12.66
2023-03-18T09:13:25.384Z,12.57
2023-03-18T09:14:25.359Z,12.57
2023-03-18T09:15:25.373Z,12.44
2023-03-18T09:16:25.410Z,12.39
2023-03-18T09:17:43.828Z,12.46
2023-03-18T09:18:26.339Z,12.54
2023-03-18T09:19:25.325Z,12.60
2023-03-18T09:20:25.303Z,12.69
2023-03-18T09:21:25.269Z,12.74
2023-03-18T09:22:25.300Z,12.81
2023-03-18T09:23:25.245Z,12.89
2023-03-18T09:24:25.228Z,12.95
2023-03-18T09:25:25.239Z,13.00
2023-03-18T09:26:25.240Z,13.04
2023-03-18T09:27:25.247Z,13.00
2023-03-18T09:28:25.184Z,12.88
2023-03-18T09:29:25.190Z,12.85
2023-03-18T09:30:25.281Z,12.78
2023-03-18T09:31:25.155Z,12.71
2023-03-18T09:32:25.158Z,12.69
2023-03-18T09:33:25.145Z,12.69
2023-03-18T09:34:25.110Z,12.75
2023-03-18T09:35:25.098Z,12.78
2023-03-18T09:36:25.101Z,12.85
2023-03-18T09:37:25.063Z,12.95
2023-03-18T09:38:25.078Z,13.02
2023-03-18T09:39:25.039Z,13.07
2023-03-18T09:40:25.137Z,13.14
2023-03-18T09:41:25.020Z,13.20
2023-03-18T09:42:25.020Z,13.30
2023-03-18T09:43:24.987Z,13.27
2023-03-18T09:44:25.000Z,13.33
2023-03-18T09:45:24.959Z,13.33
2023-03-18T09:46:25.144Z,13.30
2023-03-18T09:47:24.969Z,13.30
2023-03-18T09:48:24.964Z,13.33
2023-03-18T09:49:24.940Z,13.38
2023-03-18T09:50:24.936Z,13.43
2023-03-18T09:51:24.896Z,13.49
2023-03-18T09:52:24.893Z,13.54
2023-03-18T09:53:24.868Z,13.46
2023-03-18T09:54:24.842Z,13.43
2023-03-18T09:55:24.828Z,13.40
2023-03-18T09:56:24.833Z,13.46
2023-03-18T09:57:25.782Z,13.47
2023-03-18T09:58:24.800Z,13.44
2023-03-18T09:59:24.778Z,13.49
2023-03-18T10:00:24.823Z,13.59
2023-03-18T10:01:24.881Z,13.63
2023-03-18T10:02:24.761Z,13.76
2023-03-18T10:03:24.767Z,13.76
2023-03-18T10:04:24.741Z,13.70
2023-03-18T10:05:24.712Z,13.70
2023-03-18T10:06:24.688Z,13.71
2023-03-18T10:07:24.677Z,13.73
2023-03-18T10:08:24.672Z,13.73
2023-03-18T10:09:24.648Z,13.79
2023-03-18T10:10:24.697Z,13.80
2023-03-18T10:11:24.638Z,13.94
2023-03-18T10:12:24.621Z,14.01
2023-03-18T10:13:24.613Z,14.02
2023-03-18T10:14:24.587Z,14.10
2023-03-18T10:15:24.591Z,14.20
2023-03-18T10:16:24.635Z,14.29
2023-03-18T10:17:24.554Z,14.29
2023-03-18T10:18:24.529Z,14.32
2023-03-18T10:19:24.530Z,14.34
2023-03-18T10:20:24.593Z,14.39
2023-03-18T10:21:24.492Z,14.47
2023-03-18T10:22:24.493Z,14.54
2023-03-18T10:23:27.011Z,14.64
2023-03-18T10:24:24.460Z,14.67
2023-03-18T10:25:24.453Z,14.74
2023-03-18T10:26:24.493Z,14.75
2023-03-18T10:27:24.425Z,14.75
2023-03-18T10:28:24.415Z,14.81
2023-03-18T10:29:24.382Z,14.88
2023-03-18T10:30:24.415Z,15.02
2023-03-18T10:31:24.396Z,15.05
2023-03-18T10:32:24.374Z,15.19
2023-03-18T10:33:24.395Z,15.26
2023-03-18T10:34:24.353Z,15.31
2023-03-18T10:35:24.342Z,15.42
2023-03-18T10:36:24.330Z,15.49
2023-03-18T10:37:24.324Z,15.49
2023-03-18T10:38:24.308Z,15.52
2023-03-18T10:39:24.276Z,15.60
2023-03-18T10:40:24.314Z,15.64
2023-03-18T10:41:26.443Z,15.57
2023-03-18T10:42:24.227Z,15.45
2023-03-18T10:43:24.228Z,15.41
2023-03-18T10:44:24.216Z,15.39
2023-03-18T10:45:24.210Z,15.39
2023-03-18T10:46:24.388Z,15.33
2023-03-18T10:47:24.317Z,15.31
2023-03-18T10:48:24.227Z,15.42
2023-03-18T10:49:24.150Z,15.52
2023-03-18T10:50:24.149Z,15.67
2023-03-18T10:51:24.120Z,15.78
2023-03-18T10:52:24.089Z,15.86
2023-03-18T10:53:24.082Z,15.99
2023-03-18T10:54:24.092Z,16.03
2023-03-18T10:55:24.073Z,16.12
2023-03-18T10:56:24.079Z,16.11
2023-03-18T10:57:24.074Z,15.88
2023-03-18T10:58:24.012Z,15.86
2023-03-18T10:59:24.009Z,15.96
2023-03-18T11:00:24.001Z,16.04
2023-03-18T11:01:24.012Z,16.00
2023-03-18T11:02:23.991Z,16.00
2023-03-18T11:03:23.973Z,15.99
2023-03-18T11:04:23.958Z,16.03
2023-03-18T11:05:23.944Z,16.09
2023-03-18T11:06:23.911Z,16.16
2023-03-18T11:07:23.946Z,16.23
2023-03-18T11:08:23.901Z,16.30
2023-03-18T11:09:23.924Z,16.37
2023-03-18T11:10:23.884Z,16.25
2023-03-18T11:11:23.853Z,16.12
2023-03-18T11:12:23.857Z,16.11
2023-03-18T11:13:23.826Z,16.15
2023-03-18T11:14:23.812Z,16.27
2023-03-18T11:15:23.811Z,16.34
2023-03-18T11:16:23.868Z,16.44
2023-03-18T11:17:23.805Z,16.56
2023-03-18T11:18:23.776Z,16.67
2023-03-18T11:19:24.443Z,16.77
2023-03-18T11:20:23.732Z,16.75
2023-03-18T11:21:23.750Z,16.77
2023-03-18T11:22:23.718Z,16.75
2023-03-18T11:23:23.757Z,16.74
2023-03-18T11:24:23.696Z,16.77
2023-03-18T11:25:23.697Z,16.85
2023-03-18T11:26:23.687Z,16.90
2023-03-18T11:27:23.644Z,17.00
2023-03-18T11:28:23.656Z,17.11
2023-03-18T11:29:23.629Z,17.18
2023-03-18T11:30:34.067Z,17.11
2023-03-18T11:31:24.755Z,17.11
2023-03-18T11:32:23.597Z,17.13
2023-03-18T11:33:23.574Z,17.14
2023-03-18T11:34:23.560Z,17.15
2023-03-18T11:35:23.577Z,17.20
2023-03-18T11:36:23.523Z,17.26
2023-03-18T11:37:25.829Z,17.33
2023-03-18T11:38:23.510Z,17.41
2023-03-18T11:39:23.506Z,17.47
2023-03-18T11:40:23.504Z,17.54
2023-03-18T11:41:23.470Z,17.62
2023-03-18T11:42:23.458Z,17.55
2023-03-18T11:43:23.449Z,17.64
2023-03-18T11:44:23.443Z,17.70
2023-03-18T11:45:23.415Z,17.55
2023-03-18T11:46:23.477Z,17.54
2023-03-18T11:47:23.396Z,17.53
2023-03-18T11:48:23.414Z,17.67
2023-03-18T11:49:23.367Z,17.79
2023-03-18T11:50:23.380Z,17.78
2023-03-18T11:51:25.813Z,17.63
2023-03-18T11:52:23.316Z,17.67
2023-03-18T11:53:23.326Z,17.62
2023-03-18T11:54:23.305Z,17.66
2023-03-18T11:55:23.293Z,17.78
2023-03-18T11:56:23.276Z,17.78
2023-03-18T11:57:23.267Z,17.82
2023-03-18T11:58:23.264Z,17.92
2023-03-18T11:59:23.239Z,17.87
2023-03-18T12:00:23.246Z,17.91
2023-03-18T12:01:23.216Z,18.03
2023-03-18T12:02:23.238Z,18.10
2023-03-18T12:03:23.181Z,18.19
2023-03-18T12:04:23.175Z,18.19
2023-03-18T12:05:23.217Z,18.29
2023-03-18T12:06:23.172Z,18.13
2023-03-18T12:07:23.146Z,18.09
2023-03-18T12:08:23.141Z,17.82
2023-03-18T12:09:23.113Z,17.73
2023-03-18T12:10:23.085Z,17.63
2023-03-18T12:11:23.076Z,17.59
2023-03-18T12:12:23.057Z,17.48
2023-03-18T12:13:23.053Z,17.32
2023-03-18T12:14:23.044Z,17.47
2023-03-18T12:15:23.051Z,17.67
2023-03-18T12:16:23.110Z,17.81
2023-03-18T12:17:23.009Z,18.00
2023-03-18T12:18:22.988Z,18.09
2023-03-18T12:19:22.983Z,17.97
2023-03-18T12:20:22.983Z,17.74
2023-03-18T12:21:22.963Z,17.79
2023-03-18T12:22:22.930Z,17.87
2023-03-18T12:23:22.978Z,17.84
2023-03-18T12:24:22.917Z,17.62
2023-03-18T12:25:22.898Z,17.35
2023-03-18T12:26:22.870Z,17.22
2023-03-18T12:27:22.861Z,17.17
2023-03-18T12:28:22.852Z,17.35
2023-03-18T12:29:22.842Z,17.51
2023-03-18T12:30:22.821Z,17.69
2023-03-18T12:31:22.829Z,17.84
2023-03-18T12:32:22.833Z,17.97
2023-03-18T12:33:22.782Z,18.06
2023-03-18T12:34:22.764Z,17.89
2023-03-18T12:35:22.823Z,17.87
2023-03-18T12:36:22.775Z,17.88
2023-03-18T12:37:22.735Z,17.95
2023-03-18T12:38:22.744Z,17.99
2023-03-18T12:39:22.704Z,18.04
2023-03-18T12:40:22.684Z,17.88
2023-03-18T12:41:22.685Z,17.84
2023-03-18T12:42:22.664Z,17.76
2023-03-18T12:43:22.783Z,17.78
2023-03-18T12:44:22.646Z,17.89
2023-03-18T12:45:22.669Z,17.97
2023-03-18T12:46:22.693Z,18.02
2023-03-18T12:47:22.600Z,17.88
2023-03-18T12:48:40.613Z,17.81
2023-03-18T12:49:23.580Z,17.69
2023-03-18T12:50:22.557Z,17.70
2023-03-18T12:51:22.590Z,17.84
2023-03-18T12:52:22.560Z,17.92
2023-03-18T12:53:22.544Z,18.00
2023-03-18T12:54:22.521Z,18.13
2023-03-18T12:55:22.516Z,18.06
2023-03-18T12:56:22.500Z,17.99
2023-03-18T12:57:22.498Z,18.09
2023-03-18T12:58:22.484Z,18.07
2023-03-18T12:59:22.464Z,18.21
2023-03-18T13:00:22.610Z,18.17
2023-03-18T13:01:22.579Z,18.12
2023-03-18T13:02:22.483Z,17.94
2023-03-18T13:03:22.411Z,17.88
2023-03-18T13:04:22.393Z,17.74
2023-03-18T13:05:22.418Z,17.71
2023-03-18T13:06:22.362Z,17.76
2023-03-18T13:07:22.368Z,17.88
2023-03-18T13:08:22.364Z,17.87